Time;durP1;ratioP1;P1;durP2;ratioP2;P2;SDS_P1;SDS_P2;PMS_P1;PMS_P2;Temp;Humidity;BMP_temperature;BMP_pressure;BME280_temperature;BME280_humidity;BME280_pressure;Samples;Min_cycle;Max_cycle;Signal;HPM_P1;HPM_P2
2022/03/26 00:00:22;;;;;;;33.28;20.58;;;;;;;10.84;36.74;97654.78;6252367;22;20031;-83
2022/03/26 00:02:52;;;;;;;33.75;20.77;;;;;;;10.93;37.33;97653.88;6252626;22;20031;-82
2022/03/26 00:08:10;;;;;;;32.88;20.58;;;;;;;11.09;36.94;97647.88;6188934;23;20004;-87
2022/03/26 00:11:00;;;;;;;35.13;22.02;;;;;;;11.01;37.21;97653.06;6178164;23;20032;-90
2022/03/26 00:13:49;;;;;;;34.25;21.20;;;;;;;10.93;37.89;97651.25;6176266;23;20117;-87
2022/03/26 00:16:25;;;;;;;39.67;23.75;;;;;;;10.87;37.13;97643.25;6174139;23;20017;-89
2022/03/26 00:21:47;;;;;;;45.42;24.42;;;;;;;10.64;37.77;97653.41;6170981;23;20327;-89
2022/03/26 00:24:24;;;;;;;40.05;24.38;;;;;;;10.63;38.13;97647.38;6172465;23;20397;-88
2022/03/26 00:27:04;;;;;;;43.20;25.02;;;;;;;10.67;38.97;97647.88;6171087;23;20041;-85
2022/03/26 00:29:39;;;;;;;35.97;22.52;;;;;;;10.70;38.63;97648.38;6172045;23;20022;-85
2022/03/26 00:32:27;;;;;;;37.00;22.20;;;;;;;10.65;38.45;97653.25;6171020;23;20029;-83
2022/03/26 00:35:09;;;;;;;34.03;21.80;;;;;;;10.61;38.84;97653.72;6170503;23;20045;-88
2022/03/26 00:37:45;;;;;;;35.20;22.63;;;;;;;10.52;38.57;97650.25;6169490;23;20465;-88
2022/03/26 00:40:26;;;;;;;41.38;22.30;;;;;;;10.46;39.20;97649.09;6168430;23;20017;-89
2022/03/26 00:43:09;;;;;;;39.85;24.65;;;;;;;10.48;38.97;97656.75;6168351;23;20331;-84
2022/03/26 00:45:51;;;;;;;41.45;24.92;;;;;;;10.44;38.71;97663.25;6169010;23;20020;-88
2022/03/26 00:48:25;;;;;;;35.65;21.13;;;;;;;10.36;39.22;97655.38;6169070;23;20030;-88
2022/03/26 00:50:58;;;;;;;39.00;22.48;;;;;;;10.32;38.97;97660.09;6168582;23;20453;-88
2022/03/26 00:53:35;;;;;;;36.05;22.08;;;;;;;10.21;39.20;97653.31;6161632;23;20022;-88
2022/03/26 00:56:16;;;;;;;48.08;28.02;;;;;;;10.10;39.37;97653.53;6160066;23;20021;-89
2022/03/26 00:58:54;;;;;;;40.53;24.73;;;;;;;10.03;39.41;97652.53;6160053;23;20022;-86
2022/03/26 01:01:25;;;;;;;47.60;26.92;;;;;;;10.01;39.71;97651.84;6160718;23;20017;-89
2022/03/26 01:04:08;;;;;;;37.58;23.58;;;;;;;10.03;40.04;97652.53;6159496;23;20025;-86
2022/03/26 01:06:44;;;;;;;35.00;22.58;;;;;;;10.05;39.95;97653.19;6188974;23;20036;-87
2022/03/26 01:09:21;;;;;;;41.42;24.02;;;;;;;10.01;40.11;97651.84;6208539;23;20324;-88
2022/03/26 01:12:15;;;;;;;34.83;22.67;;;;;;;9.98;40.24;97657.38;6195719;23;20036;-89
2022/03/26 01:15:01;;;;;;;39.35;22.75;;;;;;;9.89;40.23;97646.91;6191116;23;20025;-88
2022/03/26 01:17:42;;;;;;;37.42;24.83;;;;;;;9.84;39.99;97651.75;6190299;23;20021;-85
2022/03/26 01:20:16;;;;;;;31.40;21.40;;;;;;;9.86;41.05;97643.75;6191063;23;20092;-89
2022/03/26 01:23:03;;;;;;;33.45;20.90;;;;;;;9.87;40.15;97653.22;6190427;23;20017;-87
2022/03/26 01:25:58;;;;;;;31.25;20.95;;;;;;;9.82;40.69;97648.47;6190249;23;20027;-87
2022/03/26 01:28:39;;;;;;;34.08;21.73;;;;;;;9.77;40.58;97655.91;6189364;23;20021;-89
2022/03/26 01:31:22;;;;;;;32.50;20.65;;;;;;;9.72;41.63;97663.38;6188923;23;20016;-82
2022/03/26 01:33:59;;;;;;;34.15;21.67;;;;;;;9.62;40.73;97652.19;6189912;23;20016;-88
2022/03/26 01:36:32;;;;;;;37.60;21.38;;;;;;;9.46;40.94;97652.88;6188667;23;20051;-90
2022/03/26 01:39:07;;;;;;;28.80;19.67;;;;;;;9.36;40.56;97652.97;6189719;23;20096;-89
2022/03/26 01:41:50;;;;;;;30.30;19.33;;;;;;;9.24;41.00;97656.72;6189620;23;20020;-85
2022/03/26 01:44:28;;;;;;;32.17;19.60;;;;;;;9.10;41.13;97649.44;6188849;23;20132;-81
2022/03/26 01:46:59;;;;;;;27.38;18.75;;;;;;;9.08;43.13;97649.59;6188877;23;20044;-88
2022/03/26 01:49:43;;;;;;;29.90;18.48;;;;;;;9.17;42.50;97653.09;6191491;23;20071;-90
2022/03/26 01:52:19;;;;;;;34.07;21.07;;;;;;;9.23;41.96;97652.50;6191297;23;20018;-90
2022/03/26 01:55:00;;;;;;;29.63;19.80;;;;;;;9.23;41.74;97652.50;6189686;23;20334;-89
2022/03/26 01:57:36;;;;;;;31.73;20.90;;;;;;;9.17;41.82;97653.09;6188714;23;20024;-89
2022/03/26 02:00:16;;;;;;;35.88;23.30;;;;;;;9.15;42.02;97645.41;6189299;23;20027;-89
2022/03/26 02:03:02;;;;;;;34.70;22.83;;;;;;;9.14;41.63;97642.94;6188893;23;20044;-87
2022/03/26 02:05:41;;;;;;;28.33;21.20;;;;;;;9.10;41.37;97641.63;6188935;23;20020;-84
2022/03/26 02:08:12;;;;;;;28.15;19.25;;;;;;;8.99;41.50;97640.06;6188183;23;20032;-88
2022/03/26 02:10:46;;;;;;;30.73;19.48;;;;;;;8.88;41.59;97641.06;6189571;23;20028;-86
2022/03/26 02:13:17;;;;;;;32.22;21.05;;;;;;;8.74;41.82;97644.94;6188784;23;20322;-89
2022/03/26 02:15:59;;;;;;;30.38;19.90;;;;;;;8.75;44.36;97648.41;6188292;23;20052;-87
2022/03/26 02:18:31;;;;;;;32.65;19.80;;;;;;;8.75;42.43;97644.00;6188319;23;20024;-88
2022/03/26 02:21:20;;;;;;;32.75;21.25;;;;;;;8.70;42.65;97642.78;6187817;23;20021;-84
2022/03/26 02:23:59;;;;;;;29.25;18.73;;;;;;;8.65;43.43;97633.63;6188111;23;20021;-83
2022/03/26 02:26:32;;;;;;;32.22;21.42;;;;;;;8.60;42.81;97640.25;6186751;23;20027;-87
2022/03/26 02:29:10;;;;;;;31.38;20.23;;;;;;;8.52;43.30;97638.34;6187900;23;20021;-88
2022/03/26 02:31:47;;;;;;;28.65;18.60;;;;;;;8.49;42.78;97643.84;6188097;23;20453;-89
2022/03/26 02:34:21;;;;;;;28.77;18.75;;;;;;;8.44;43.41;97646.06;6187827;23;20070;-88
2022/03/26 02:37:20;;;;;;;27.90;18.95;;;;;;;8.49;45.37;97654.25;6186953;23;20050;-84
2022/03/26 02:39:57;;;;;;;33.50;19.77;;;;;;;8.52;43.96;97648.75;6187646;23;20071;-85
2022/03/26 02:42:32;;;;;;;30.08;18.80;;;;;;;8.48;43.52;97641.38;6187587;23;20092;-85
2022/03/26 02:45:05;;;;;;;30.23;19.80;;;;;;;8.40;43.54;97647.28;6187717;23;20092;-87
2022/03/26 02:47:48;;;;;;;32.60;21.35;;;;;;;8.25;43.21;97639.91;6186169;23;20021;-87
2022/03/26 02:50:20;;;;;;;33.17;21.02;;;;;;;8.15;43.63;97646.91;6187043;23;20017;-89
2022/03/26 02:52:57;;;;;;;29.98;19.45;;;;;;;8.16;44.99;97642.56;6187265;23;20017;-83
2022/03/26 02:55:36;;;;;;;33.88;20.33;;;;;;;8.19;44.23;97643.06;6187235;23;20076;-84
2022/03/26 02:58:10;;;;;;;30.33;19.55;;;;;;;8.20;43.93;97643.91;6186401;23;20021;-83
2022/03/26 03:00:40;;;;;;;35.75;21.92;;;;;;;8.17;43.62;97634.59;6186619;23;20023;-82
2022/03/26 03:03:19;;;;;;;33.80;19.50;;;;;;;8.07;43.67;97636.41;6186844;23;20013;-81
2022/03/26 03:05:58;;;;;;;28.17;19.25;;;;;;;7.94;43.83;97625.50;6185356;23;20028;-83
2022/03/26 03:08:39;;;;;;;33.35;20.88;;;;;;;7.73;43.99;97626.47;6187032;23;20507;-80
2022/03/26 03:11:11;;;;;;;32.28;20.60;;;;;;;7.56;44.38;97629.78;6187246;23;20021;-83
2022/03/26 03:13:52;;;;;;;32.15;19.75;;;;;;;7.47;44.25;97635.78;6186605;23;20084;-87
2022/03/26 03:16:21;;;;;;;30.15;20.10;;;;;;;7.42;44.89;97637.00;6185905;23;20072;-81
2022/03/26 03:18:54;;;;;;;30.63;21.08;;;;;;;7.45;45.27;97632.50;6186719;23;20017;-85
2022/03/26 03:21:29;;;;;;;28.63;19.05;;;;;;;7.51;45.02;97631.97;6186813;23;20017;-88
2022/03/26 03:24:05;;;;;;;29.88;20.02;;;;;;;7.53;45.62;97635.25;6187522;23;20024;-82
2022/03/26 03:26:35;;;;;;;31.88;19.42;;;;;;;7.55;45.53;97636.75;6186444;23;20025;-83
2022/03/26 03:29:06;;;;;;;30.58;20.70;;;;;;;7.57;45.09;97626.22;6187681;23;20023;-82
2022/03/26 03:31:47;;;;;;;26.67;18.25;;;;;;;7.53;45.04;97630.06;6186905;23;20025;-86
2022/03/26 03:34:21;;;;;;;30.45;19.77;;;;;;;7.48;45.19;97629.63;6187198;23;20024;-87
2022/03/26 03:36:58;;;;;;;31.10;20.02;;;;;;;7.46;45.54;97628.97;6187577;23;20088;-83
2022/03/26 03:39:31;;;;;;;33.85;21.17;;;;;;;7.50;46.09;97632.91;6205027;23;20048;-89
2022/03/26 03:42:03;;;;;;;37.10;20.50;;;;;;;7.49;45.41;97633.88;6205768;23;20021;-86
2022/03/26 03:44:38;;;;;;;33.28;21.05;;;;;;;7.45;45.50;97632.50;6192940;23;20021;-89
2022/03/26 03:47:10;;;;;;;32.28;20.80;;;;;;;7.46;46.46;97632.38;6190960;23;20048;-87
2022/03/26 03:49:45;;;;;;;30.25;20.38;;;;;;;7.45;45.80;97629.91;6190070;23;20040;-87
2022/03/26 03:52:18;;;;;;;33.83;20.63;;;;;;;7.50;46.43;97622.53;6189179;23;20017;-85
2022/03/26 03:54:51;;;;;;;32.55;21.33;;;;;;;7.55;45.27;97625.56;6189559;23;20020;-86
2022/03/26 03:57:25;;;;;;;31.50;19.75;;;;;;;7.47;45.34;97625.41;6189370;23;20021;-88
2022/03/26 03:59:59;;;;;;;30.27;19.25;;;;;;;7.38;45.31;97619.25;6189454;23;20020;-88
2022/03/26 04:02:33;;;;;;;30.85;19.33;;;;;;;7.33;46.15;97622.25;6189381;23;20025;-84
2022/03/26 04:05:05;;;;;;;34.30;19.83;;;;;;;7.33;45.77;97621.44;6190218;23;20032;-85
2022/03/26 04:07:34;;;;;;;27.77;18.83;;;;;;;7.38;46.20;97622.66;6188558;23;20106;-84
2022/03/26 04:10:12;;;;;;;33.72;19.60;;;;;;;7.46;46.30;97621.19;6190195;23;20017;-89
2022/03/26 04:12:47;;;;;;;32.55;20.58;;;;;;;7.47;46.06;97622.81;6189489;23;20024;-82
2022/03/26 04:15:21;;;;;;;29.70;19.33;;;;;;;7.46;45.86;97622.00;6189502;23;20524;-90
2022/03/26 04:17:54;;;;;;;31.75;18.77;;;;;;;7.46;46.08;97618.59;6187631;23;20021;-88
2022/03/26 04:20:27;;;;;;;30.60;19.58;;;;;;;7.48;46.71;97621.84;6188756;23;20392;-91
2022/03/26 04:22:57;;;;;;;33.65;20.25;;;;;;;7.51;46.15;97626.78;6188633;23;20020;-88
2022/03/26 04:25:31;;;;;;;30.67;20.05;;;;;;;7.48;45.32;97621.84;6187600;23;20023;-89
2022/03/26 04:28:03;;;;;;;34.72;20.15;;;;;;;7.43;45.11;97617.06;6188724;23;20021;-86
2022/03/26 04:30:35;;;;;;;27.88;18.38;;;;;;;7.40;45.26;97625.94;6189645;23;20441;-84
2022/03/26 04:33:05;;;;;;;33.63;19.00;;;;;;;7.42;45.43;97634.41;6190135;23;20017;-81
2022/03/26 04:35:34;;;;;;;31.17;18.73;;;;;;;7.43;45.30;97628.28;6189438;23;20092;-88
2022/03/26 04:38:03;;;;;;;31.33;19.48;;;;;;;7.43;45.88;97625.69;6189032;23;20105;-83
2022/03/26 04:40:37;;;;;;;35.47;21.77;;;;;;;7.47;46.10;97625.41;6190482;23;20029;-86
2022/03/26 04:43:09;;;;;;;34.58;20.17;;;;;;;7.41;45.49;97629.34;6210213;23;19997;-86
2022/03/26 04:45:39;;;;;;;33.17;21.37;;;;;;;7.36;45.47;97628.97;6208248;23;20021;-88
2022/03/26 04:48:13;;;;;;;29.55;19.52;;;;;;;7.40;47.53;97633.72;6194429;23;20075;-90
2022/03/26 04:50:42;;;;;;;33.80;21.20;;;;;;;7.45;45.76;97640.28;6192903;23;20075;-87
2022/03/26 04:55:58;;;;;;;33.63;21.00;;;;;;;7.32;46.96;97638.78;6190122;23;20021;-91
2022/03/26 04:58:27;;;;;;;29.70;19.08;;;;;;;7.30;45.73;97640.69;6190590;23;20028;-91
2022/03/26 05:01:00;;;;;;;35.15;20.52;;;;;;;7.25;46.05;97642.88;6193905;23;20021;-89
2022/03/26 05:03:39;;;;;;;37.00;22.33;;;;;;;7.21;45.59;97642.34;6193988;23;20017;-89
2022/03/26 05:06:16;;;;;;;32.35;20.00;;;;;;;7.20;47.29;97642.47;6192227;23;20021;-89
2022/03/26 05:08:46;;;;;;;37.45;20.70;;;;;;;7.27;46.72;97640.97;6191039;23;20028;-88
2022/03/26 05:11:19;;;;;;;29.00;18.65;;;;;;;7.35;46.78;97643.72;6190790;23;20017;-89
2022/03/26 05:13:53;;;;;;;36.03;20.73;;;;;;;7.39;45.80;97644.25;6190968;23;20021;-88
2022/03/26 05:16:25;;;;;;;30.65;19.92;;;;;;;7.37;45.68;97644.41;6189884;23;20024;-87
2022/03/26 05:18:54;;;;;;;33.03;20.10;;;;;;;7.31;45.21;97647.53;6191422;23;20468;-89
2022/03/26 05:21:27;;;;;;;31.85;20.30;;;;;;;7.23;45.48;97640.41;6190814;23;20043;-83
2022/03/26 05:23:58;;;;;;;31.50;20.90;;;;;;;7.17;45.51;97648.75;6192123;23;20068;-92
2022/03/26 05:26:29;;;;;;;29.02;18.88;;;;;;;7.16;45.66;97654.06;6189964;23;20024;-89
2022/03/26 05:28:57;;;;;;;32.63;19.48;;;;;;;7.13;46.11;97651.75;6191252;23;20353;-87
2022/03/26 05:31:31;;;;;;;29.90;18.95;;;;;;;7.06;45.71;97651.44;6191741;23;20029;-87
2022/03/26 05:34:02;;;;;;;33.60;19.27;;;;;;;6.99;45.76;97651.16;6191094;23;20457;-85
2022/03/26 05:36:30;;;;;;;32.25;18.92;;;;;;;6.92;46.52;97650.06;6190536;23;20048;-87
2022/03/26 05:39:00;;;;;;;37.45;20.98;;;;;;;6.90;46.02;97653.75;6191993;23;20357;-85
2022/03/26 05:41:32;;;;;;;33.50;19.13;;;;;;;6.89;46.80;97654.72;6193287;23;20027;-89
2022/03/26 05:44:01;;;;;;;29.67;19.70;;;;;;;6.90;46.12;97654.56;6193829;23;20013;-89
2022/03/26 05:46:30;;;;;;;31.40;19.38;;;;;;;6.85;46.03;97658.50;6192718;23;20024;-89
2022/03/26 05:48:59;;;;;;;31.10;18.77;;;;;;;6.79;45.86;97667.63;6192012;23;20032;-88
2022/03/26 05:51:30;;;;;;;33.22;18.55;;;;;;;6.73;46.09;97679.34;6193049;23;20021;-88
2022/03/26 05:54:01;;;;;;;31.80;20.73;;;;;;;6.72;46.40;97688.09;6193297;23;20024;-83
2022/03/26 05:56:36;;;;;;;32.75;19.08;;;;;;;6.74;46.09;97685.38;6192025;23;20021;-88
2022/03/26 05:59:04;;;;;;;31.55;18.85;;;;;;;6.79;46.40;97688.38;6192677;23;20021;-88
2022/03/26 06:01:35;;;;;;;35.65;19.50;;;;;;;6.80;46.26;97690.84;6192334;23;20039;-83
2022/03/26 06:04:05;;;;;;;29.05;17.90;;;;;;;6.82;45.75;97701.06;6192343;23;20445;-84
2022/03/26 06:06:33;;;;;;;32.03;17.73;;;;;;;6.80;46.11;97700.41;6192000;23;20023;-80
2022/03/26 06:09:01;;;;;;;31.10;18.27;;;;;;;6.85;46.86;97703.41;6232371;23;20057;-80
2022/03/26 06:11:28;;;;;;;31.27;18.55;;;;;;;6.99;46.40;97703.03;6237045;23;20027;-80
2022/03/26 06:13:57;;;;;;;32.30;19.70;;;;;;;7.07;46.88;97697.19;6227257;23;20021;-80
2022/03/26 06:16:25;;;;;;;30.23;18.55;;;;;;;7.14;46.29;97713.88;6215893;23;20031;-80
2022/03/26 06:18:53;;;;;;;34.40;18.63;;;;;;;7.13;45.88;97706.25;6217182;23;20020;-80
2022/03/26 06:21:21;;;;;;;28.55;17.70;;;;;;;7.15;47.33;97717.28;6216177;23;20024;-80
2022/03/26 06:23:48;;;;;;;29.08;19.10;;;;;;;7.17;45.77;97712.78;6216322;23;20027;-80
2022/03/26 06:26:16;;;;;;;31.10;18.20;;;;;;;7.13;45.68;97719.22;6215835;23;20401;-80
2022/03/26 06:28:43;;;;;;;30.52;18.70;;;;;;;7.07;45.47;97717.16;6216402;23;20460;-80
2022/03/26 06:31:14;;;;;;;29.25;18.13;;;;;;;7.02;45.83;97720.13;6216561;23;20359;-80
2022/03/26 06:33:42;;;;;;;30.13;18.75;;;;;;;7.00;46.78;97724.63;6216900;23;20349;-80
2022/03/26 06:36:09;;;;;;;29.55;18.13;;;;;;;7.09;46.98;97717.84;6215865;23;20024;-80
2022/03/26 06:38:38;;;;;;;40.22;19.90;;;;;;;7.08;45.84;97729.97;6216843;23;20025;-80
2022/03/26 06:41:06;;;;;;;30.15;18.35;;;;;;;7.05;46.05;97729.44;6216237;23;20024;-80
2022/03/26 06:43:34;;;;;;;28.70;16.95;;;;;;;7.10;46.95;97732.44;6216323;23;20024;-80
2022/03/26 06:46:02;;;;;;;30.60;17.95;;;;;;;7.21;46.24;97734.91;6215775;23;20475;-80
2022/03/26 06:48:31;;;;;;;30.75;18.65;;;;;;;7.30;45.68;97734.13;6216948;23;20135;-80
2022/03/26 06:51:00;;;;;;;30.23;18.05;;;;;;;7.33;45.81;97733.06;6216566;23;20021;-80
2022/03/26 06:53:28;;;;;;;35.40;18.88;;;;;;;7.33;45.54;97731.28;6216318;23;20052;-80
2022/03/26 06:55:56;;;;;;;30.73;18.73;;;;;;;7.43;45.87;97741.66;6215496;23;20017;-80
2022/03/26 06:58:24;;;;;;;33.90;18.75;;;;;;;7.55;45.35;97734.59;6216289;23;20031;-81
2022/03/26 07:00:52;;;;;;;29.27;17.73;;;;;;;7.64;45.40;97733.78;6216097;23;20026;-80
2022/03/26 07:03:19;;;;;;;30.73;18.92;;;;;;;7.75;45.56;97743.22;6216324;23;20056;-80
2022/03/26 07:05:49;;;;;;;28.10;17.60;;;;;;;7.89;45.87;97735.00;6215868;23;20058;-80
2022/03/26 07:08:16;;;;;;;31.48;18.50;;;;;;;8.09;45.37;97737.59;6216312;23;20027;-80
2022/03/26 07:10:46;;;;;;;33.13;19.83;;;;;;;8.24;45.16;97739.66;6215774;23;20039;-80
2022/03/26 07:13:14;;;;;;;34.45;21.02;;;;;;;8.42;44.85;97736.38;6215823;23;20017;-80
2022/03/26 07:15:43;;;;;;;29.75;19.33;;;;;;;8.61;44.60;97745.91;6218797;23;20099;-80
2022/03/26 07:18:12;;;;;;;28.75;18.02;;;;;;;8.78;44.33;97739.16;6242387;23;20020;-80
2022/03/26 07:20:40;;;;;;;34.00;20.40;;;;;;;8.97;44.88;97741.69;6241566;23;20017;-80
2022/03/26 07:23:09;;;;;;;30.88;19.10;;;;;;;9.17;43.95;97739.00;6232026;23;20396;-80
2022/03/26 07:25:37;;;;;;;31.20;18.92;;;;;;;9.38;44.00;97747.38;6215356;23;20013;-80
2022/03/26 07:28:05;;;;;;;31.88;19.27;;;;;;;9.59;43.95;97751.50;6216535;23;20019;-80
2022/03/26 07:30:34;;;;;;;32.80;18.00;;;;;;;9.80;43.71;97739.00;6215571;23;20022;-80
2022/03/26 07:33:02;;;;;;;31.05;18.75;;;;;;;10.02;43.20;97736.94;6215638;23;20024;-80
2022/03/26 07:35:31;;;;;;;31.30;18.50;;;;;;;10.22;42.73;97740.19;6215262;23;20017;-81
2022/03/26 07:37:59;;;;;;;60.80;33.35;;;;;;;10.44;44.90;97736.28;6215216;23;20453;-80
2022/03/26 07:40:29;;;;;;;48.85;29.70;;;;;;;10.65;44.89;97739.38;6215172;23;20037;-80
2022/03/26 07:42:57;;;;;;;35.45;21.17;;;;;;;10.86;42.49;97746.81;6215147;23;20349;-80
2022/03/26 07:45:25;;;;;;;27.77;20.13;;;;;;;11.05;41.54;97740.53;6185320;23;20092;-80
2022/03/26 07:47:53;;;;;;;30.60;19.27;;;;;;;11.24;43.79;97741.25;6184574;23;20273;-80
2022/03/26 07:50:23;;;;;;;34.88;21.92;;;;;;;11.45;41.32;97746.88;6184952;23;20065;-80
2022/03/26 07:52:51;;;;;;;31.20;20.08;;;;;;;11.65;40.86;97741.38;6184965;23;20454;-80
2022/03/26 07:55:19;;;;;;;33.03;18.83;;;;;;;11.88;40.10;97741.63;6185457;23;20027;-81
2022/03/26 07:57:49;;;;;;;35.10;20.38;;;;;;;12.08;39.20;97742.13;6184897;23;20025;-81
2022/03/26 08:00:17;;;;;;;29.48;20.55;;;;;;;12.30;41.02;97741.47;6185441;23;20056;-80
2022/03/26 08:02:45;;;;;;;30.88;20.30;;;;;;;12.55;39.49;97749.28;6186204;23;20445;-80
2022/03/26 08:05:13;;;;;;;34.88;18.85;;;;;;;12.83;38.66;97751.53;6186874;23;20041;-80
2022/03/26 08:07:41;;;;;;;30.63;20.45;;;;;;;13.12;37.99;97754.41;6186407;23;20043;-80
2022/03/26 08:10:10;;;;;;;35.92;20.73;;;;;;;13.42;37.50;97754.63;6187895;23;20021;-80
2022/03/26 08:12:38;;;;;;;33.03;19.63;;;;;;;13.73;37.01;97761.66;6200583;23;20033;-80
2022/03/26 08:15:09;;;;;;;28.63;18.92;;;;;;;14.00;35.82;97760.38;6194794;23;20040;-81
2022/03/26 08:17:38;;;;;;;33.55;20.02;;;;;;;14.26;35.67;97754.75;6195140;23;20017;-80
2022/03/26 08:20:07;;;;;;;31.50;20.02;;;;;;;14.56;35.18;97760.94;6201850;23;20025;-81
2022/03/26 08:22:35;;;;;;;33.45;19.05;;;;;;;14.86;35.48;97766.19;6190006;23;20032;-81
2022/03/26 08:25:05;;;;;;;27.10;19.13;;;;;;;15.15;36.32;97768.03;6188024;23;20017;-80
2022/03/26 08:27:34;;;;;;;37.92;22.13;;;;;;;15.44;34.51;97763.75;6187053;23;20035;-81
2022/03/26 08:30:07;;;;;;;28.15;19.60;;;;;;;15.74;33.78;97768.94;6188164;23;20025;-80
2022/03/26 08:53:50;;;;;;;26.23;19.00;;;;;;;18.43;30.35;97764.84;6188060;23;20484;-81
2022/03/26 08:56:18;;;;;;;27.17;18.92;;;;;;;18.73;30.39;97767.84;6187335;23;20025;-82
2022/03/26 08:58:45;;;;;;;32.65;21.02;;;;;;;19.03;29.65;97767.44;6187575;23;20021;-82
2022/03/26 09:01:13;;;;;;;31.88;20.83;;;;;;;19.28;29.29;97767.56;6187152;23;20021;-83
2022/03/26 09:03:43;;;;;;;30.35;19.92;;;;;;;19.53;27.73;97764.22;6186324;23;20020;-83
2022/03/26 09:06:11;;;;;;;31.75;21.00;;;;;;;19.77;27.54;97768.03;6186347;23;20258;-83
2022/03/26 09:08:39;;;;;;;30.77;19.77;;;;;;;20.10;27.21;97762.53;6189391;23;20027;-84
2022/03/26 09:11:08;;;;;;;39.70;22.77;;;;;;;20.45;25.50;97770.00;6190418;23;20032;-83
2022/03/26 09:13:36;;;;;;;35.08;23.42;;;;;;;20.83;24.93;97769.09;6190924;23;20048;-83
2022/03/26 09:16:05;;;;;;;33.50;23.10;;;;;;;21.18;23.91;97772.00;6188607;23;20512;-81
2022/03/26 09:18:32;;;;;;;35.63;24.00;;;;;;;21.52;22.29;97769.00;6190984;23;20096;-81
2022/03/26 09:21:00;;;;;;;36.75;24.20;;;;;;;21.73;21.69;97762.38;6190723;23;20020;-81
2022/03/26 09:23:32;;;;;;;33.90;23.20;;;;;;;21.97;22.08;97757.97;6191078;23;20480;-82
2022/03/26 09:26:04;;;;;;;39.65;25.02;;;;;;;22.18;20.80;97757.47;6189795;23;20369;-81
2022/03/26 09:28:32;;;;;;;36.97;23.55;;;;;;;22.13;19.87;97761.84;6191097;23;20028;-81
2022/03/26 09:31:00;;;;;;;33.25;23.13;;;;;;;22.13;20.12;97756.53;6191354;23;20021;-81
2022/03/26 09:33:28;;;;;;;36.90;23.13;;;;;;;22.30;20.76;97751.38;6190813;23;20454;-81
2022/03/26 09:35:55;;;;;;;31.83;21.05;;;;;;;22.53;19.62;97761.25;6189289;23;20021;-81
2022/03/26 09:38:26;;;;;;;30.23;20.00;;;;;;;22.77;19.47;97765.53;6196684;23;20031;-82
2022/03/26 09:40:54;;;;;;;24.25;17.50;;;;;;;23.03;19.50;97766.94;6205203;23;20025;-82
2022/03/26 09:43:23;;;;;;;33.08;18.77;;;;;;;23.29;18.49;97766.69;6204867;23;20085;-81
2022/03/26 09:45:52;;;;;;;35.47;20.30;;;;;;;23.55;18.87;97762.66;6194682;23;20013;-81
2022/03/26 09:48:20;;;;;;;30.08;17.13;;;;;;;23.87;18.03;97764.88;6193104;23;20025;-81
2022/03/26 09:50:47;;;;;;;33.38;19.48;;;;;;;24.19;17.33;97758.00;6192789;23;20021;-81
2022/03/26 09:53:17;;;;;;;33.22;17.92;;;;;;;24.57;17.47;97756.50;6192841;23;20361;-81
2022/03/26 09:55:45;;;;;;;23.42;16.70;;;;;;;24.97;17.59;97752.81;6194237;23;20021;-81
2022/03/26 09:58:13;;;;;;;24.55;17.90;;;;;;;25.42;17.14;97754.47;6192047;23;20025;-81
2022/03/26 10:00:41;;;;;;;26.17;16.65;;;;;;;25.89;16.04;97755.84;6191937;23;20017;-81
2022/03/26 10:03:10;;;;;;;40.30;18.88;;;;;;;26.37;15.59;97759.47;6191884;23;20031;-81
2022/03/26 10:05:37;;;;;;;31.92;17.33;;;;;;;26.89;15.08;97757.97;6190993;23;20021;-81
2022/03/26 10:08:20;;;;;;;27.23;16.30;;;;;;;27.50;14.17;97760.97;6189991;23;20025;-81
2022/03/26 10:10:50;;;;;;;22.92;16.42;;;;;;;28.09;14.32;97757.09;6191103;23;20032;-81
2022/03/26 10:13:36;;;;;;;24.00;15.90;;;;;;;28.71;13.87;97757.13;6190762;23;20025;-81
2022/03/26 10:16:06;;;;;;;26.63;17.58;;;;;;;29.24;13.16;97748.72;6188643;23;20017;-81
2022/03/26 10:18:37;;;;;;;25.02;16.52;;;;;;;29.58;13.30;97749.63;6190241;23;20104;-81
2022/03/26 10:21:08;;;;;;;39.20;17.10;;;;;;;29.99;12.36;97754.78;6189838;23;20021;-81
2022/03/26 10:23:36;;;;;;;34.63;24.67;;;;;;;30.32;12.46;97752.41;6189459;23;20048;-81
2022/03/26 10:26:09;;;;;;;23.00;17.50;;;;;;;30.60;12.24;97747.31;6190377;23;20013;-81
2022/03/26 10:28:37;;;;;;;21.40;16.90;;;;;;;30.83;11.82;97755.72;6191624;23;20024;-81
2022/03/26 10:34:08;;;;;;;23.17;18.05;;;;;;;30.93;11.64;97761.03;6190514;23;20055;-82
2022/03/26 10:36:38;;;;;;;23.52;16.35;;;;;;;31.17;11.49;97756.44;6188593;23;20349;-82
2022/03/26 10:39:07;;;;;;;21.85;17.45;;;;;;;31.28;11.38;97756.34;6190055;23;20025;-82
2022/03/26 10:41:35;;;;;;;41.55;20.02;;;;;;;31.46;11.42;97747.50;6189744;23;20021;-81
2022/03/26 10:44:08;;;;;;;26.23;17.67;;;;;;;31.87;10.91;97752.34;6189733;23;20351;-82
2022/03/26 10:46:47;;;;;;;26.63;18.58;;;;;;;32.36;10.75;97751.09;6189267;23;20427;-81
2022/03/26 10:49:26;;;;;;;33.92;19.13;;;;;;;32.75;10.55;97744.47;6189419;23;20017;-81
2022/03/26 10:51:54;;;;;;;26.13;17.77;;;;;;;33.22;10.02;97742.53;6189835;23;20121;-81
2022/03/26 10:54:29;;;;;;;22.30;17.63;;;;;;;33.70;10.23;97752.09;6189971;23;20020;-82
2022/03/26 10:56:58;;;;;;;24.75;17.23;;;;;;;34.13;9.90;97738.13;6188131;23;20017;-82
2022/03/26 10:59:27;;;;;;;23.73;17.60;;;;;;;34.38;9.83;97736.72;6189367;23;20017;-82
2022/03/26 11:01:54;;;;;;;22.35;17.33;;;;;;;34.58;9.00;97737.31;6189833;23;20025;-82
2022/03/26 11:04:24;;;;;;;20.63;16.85;;;;;;;34.81;9.36;97741.59;6190090;23;20100;-82
2022/03/26 11:06:51;;;;;;;19.75;16.67;;;;;;;34.90;8.69;97738.09;6201482;23;20073;-82
2022/03/26 11:09:20;;;;;;;22.08;17.38;;;;;;;34.99;8.62;97741.66;6207734;23;20025;-82
2022/03/26 11:11:50;;;;;;;20.55;17.15;;;;;;;35.24;9.43;97738.25;6208834;23;20005;-82
2022/03/26 11:14:21;;;;;;;26.05;17.08;;;;;;;35.62;9.01;97739.59;6208300;23;20065;-82
2022/03/26 11:17:01;;;;;;;24.65;16.67;;;;;;;35.97;8.19;97734.19;6193327;23;20021;-82
2022/03/26 11:19:38;;;;;;;23.23;17.40;;;;;;;36.27;7.77;97735.94;6194305;23;20021;-82
2022/03/26 11:22:29;;;;;;;21.73;16.38;;;;;;;36.54;8.54;97733.16;6192890;23;20354;-82
2022/03/26 11:25:13;;;;;;;22.27;15.50;;;;;;;37.02;7.54;97727.44;6192368;23;20100;-82
2022/03/26 11:27:56;;;;;;;23.48;17.65;;;;;;;37.13;7.66;97727.88;6205449;23;19997;-82
2022/03/26 11:30:35;;;;;;;19.52;15.25;;;;;;;37.18;7.66;97724.97;6211322;23;20027;-82
2022/03/26 11:33:10;;;;;;;17.38;15.27;;;;;;;37.32;7.83;97725.50;6206366;23;20358;-82
2022/03/26 11:35:50;;;;;;;20.83;15.07;;;;;;;37.16;7.90;97724.50;6194481;23;20027;-82
2022/03/26 11:38:17;;;;;;;19.35;15.60;;;;;;;37.23;7.81;97716.63;6192893;23;20024;-82
2022/03/26 11:40:48;;;;;;;21.40;15.02;;;;;;;36.95;7.72;97715.47;6193362;23;20023;-82
2022/03/26 11:43:18;;;;;;;16.98;14.07;;;;;;;36.80;7.92;97706.75;6192640;23;20017;-82
2022/03/26 11:51:28;;;;;;;19.07;16.33;;;;;;;36.70;7.54;97704.38;6192398;23;20393;-82
2022/03/26 11:53:59;;;;;;;16.48;13.38;;;;;;;36.26;7.29;97701.78;6192689;23;20021;-82
2022/03/26 11:56:30;;;;;;;17.45;14.38;;;;;;;35.75;8.21;97697.16;6191542;23;20028;-81
2022/03/26 11:59:23;;;;;;;21.95;15.25;;;;;;;35.27;8.11;97699.66;6192007;23;20080;-82
2022/03/26 12:01:50;;;;;;;16.88;14.05;;;;;;;34.86;8.32;97689.94;6192395;23;20024;-81
2022/03/26 12:04:20;;;;;;;23.17;16.45;;;;;;;34.42;9.28;97690.84;6192344;23;20032;-81
2022/03/26 14:41:35;;;;;;;18.45;11.35;;;;;;;19.65;18.70;97576.44;6200867;23;20001;-84
2022/03/26 14:45:16;;;;;;;16.70;11.27;;;;;;;19.60;18.73;97571.00;6210244;23;20009;-84
2022/03/26 14:48:37;;;;;;;17.48;10.80;;;;;;;19.60;19.12;97577.09;6211978;23;20036;-83
2022/03/26 15:05:36;;;;;;;18.13;10.95;;;;;;;19.47;19.81;97563.97;6206186;22;20005;-83
2022/03/26 15:43:44;;;;;;;18.50;11.85;;;;;;;18.91;19.73;97576.91;6181620;23;20064;-83
2022/03/26 15:49:08;;;;;;;18.98;11.68;;;;;;;18.79;20.27;97573.31;6141975;22;20020;-83
2022/03/26 15:52:02;;;;;;;19.92;12.02;;;;;;;18.72;20.23;97572.50;6188943;22;20040;-83
2022/03/26 16:49:26;;;;;;;14.68;9.27;;;;;;;17.77;20.18;97593.97;6196680;23;20001;-81